Time,TemperatureF,DewpointF,PressureIn,WindDirection,WindDirectionDegrees,WindSpeedMPH,WindSpeedGustMPH,Humidity,HourlyPrecipIn,Conditions,Clouds,dailyrainin,SoftwareType,DateUTC
2013-04-17 00:02:00,25.0,23.0,-100.00,North,-999,-999.0,-999.0,91,-99.99,,,-99.99,,2013-04-17 07:02:00,
2013-04-17 00:12:00,27.0,-99.9,-100.00,North,-999,-999.0,-999.0,-999,-99.99,,,-99.99,,2013-04-17 07:12:00,
2013-04-17 00:22:00,27.0,26.0,-100.00,North,-999,-999.0,-999.0,95,-99.99,,,-99.99,,2013-04-17 07:22:00,
2013-04-17 00:32:00,27.0,26.0,-100.00,North,-999,-999.0,-999.0,95,-99.99,,,-99.99,,2013-04-17 07:32:00,
2013-04-17 00:52:00,26.0,26.0,-100.00,North,-999,-999.0,-999.0,99,-99.99,,,-99.99,,2013-04-17 07:52:00,
2013-04-17 01:02:00,26.0,26.0,-100.00,North,-999,-999.0,-999.0,99,-99.99,,,-99.99,,2013-04-17 08:02:00,
2013-04-17 01:12:00,25.0,-99.9,-100.00,North,-999,-999.0,-999.0,-999,-99.99,,,-99.99,,2013-04-17 08:12:00,
2013-04-17 01:22:00,25.0,25.0,-100.00,North,-999,-999.0,-999.0,99,-99.99,,,-99.99,,2013-04-17 08:22:00,
2013-04-17 01:32:00,25.0,25.0,-100.00,North,-999,-999.0,-999.0,99,-99.99,,,-99.99,,2013-04-17 08:32:00,
2013-04-17 01:42:00,26.0,26.0,-100.00,North,-999,-999.0,-999.0,99,-99.99,,,-99.99,,2013-04-17 08:42:00,
2013-04-17 01:52:00,24.0,24.0,-100.00,North,-999,-999.0,-999.0,99,-99.99,,,-99.99,,2013-04-17 08:52:00,
2013-04-17 02:02:00,24.0,24.0,-100.00,North,-999,-999.0,-999.0,99,-99.99,,,-99.99,,2013-04-17 09:02:00,
2013-04-17 02:12:00,24.0,24.0,-100.00,North,-999,-999.0,-999.0,99,-99.99,,,-99.99,,2013-04-17 09:12:00,
2013-04-17 02:22:00,24.0,24.0,-100.00,North,-999,-999.0,-999.0,99,-99.99,,,-99.99,,2013-04-17 09:22:00,
2013-04-17 02:33:00,23.0,23.0,-100.00,North,-999,-999.0,-999.0,99,-99.99,,,-99.99,,2013-04-17 09:33:00,
2013-04-17 02:42:00,23.0,23.0,-100.00,North,-999,-999.0,-999.0,99,-99.99,,,-99.99,,2013-04-17 09:42:00,
2013-04-17 02:52:00,22.0,22.0,-100.00,North,-999,-999.0,-999.0,99,-99.99,,,-99.99,,2013-04-17 09:52:00,
2013-04-17 03:03:00,23.0,-99.9,-100.00,North,-999,-999.0,-999.0,-999,-99.99,,,-99.99,,2013-04-17 10:03:00,
2013-04-17 03:13:00,23.0,-99.9,-100.00,North,-999,-999.0,-999.0,-999,-99.99,,,-99.99,,2013-04-17 10:13:00,
2013-04-17 03:32:00,23.0,23.0,-100.00,North,-999,-999.0,-999.0,99,-99.99,,,-99.99,,2013-04-17 10:32:00,
2013-04-17 03:42:00,23.0,23.0,-100.00,North,-999,-999.0,-999.0,99,-99.99,,,-99.99,,2013-04-17 10:42:00,
2013-04-17 03:52:00,23.0,23.0,-100.00,North,-999,-999.0,-999.0,99,-99.99,,,-99.99,,2013-04-17 10:52:00,
2013-04-17 04:02:00,21.0,21.0,-100.00,North,-999,-999.0,-999.0,99,-99.99,,,-99.99,,2013-04-17 11:02:00,
2013-04-17 04:12:00,21.0,21.0,-100.00,North,-999,-999.0,-999.0,99,-99.99,,,-99.99,,2013-04-17 11:12:00,
2013-04-17 04:22:00,22.0,22.0,-100.00,North,-999,-999.0,-999.0,499,-99.99,,,-99.99,,2013-04-17 11:22:00,
2013-04-17 04:32:00,21.0,21.0,-100.00,North,-999,-999.0,-999.0,99,-99.99,,,-99.99,,2013-04-17 11:32:00,
2013-04-17 04:42:00,21.0,21.0,-100.00,North,-999,-999.0,-999.0,99,-99.99,,,-99.99,,2013-04-17 11:42:00,
2013-04-17 04:52:00,20.0,20.0,-100.00,North,-999,-999.0,-999.0,99,-99.99,,,-99.99,,2013-04-17 11:52:00,
2013-04-17 05:12:00,21.0,18.0,-100.00,North,-999,-999.0,-999.0,89,-99.99,,,-99.99,,2013-04-17 12:12:00,
2013-04-17 05:22:00,21.0,18.0,-100.00,North,-999,-999.0,-999.0,89,-99.99,,,-99.99,,2013-04-17 12:22:00,
2013-04-17 05:32:00,21.0,18.0,-100.00,North,-999,-999.0,-999.0,89,-99.99,,,-99.99,,2013-04-17 12:32:00,
2013-04-17 06:02:00,22.0,16.0,-100.00,North,-999,-999.0,-999.0,76,-99.99,,,-99.99,,2013-04-17 13:02:00,
2013-04-17 06:12:00,21.0,14.0,-100.00,North,-999,-999.0,-999.0,74,-99.99,,,-99.99,,2013-04-17 13:12:00,
2013-04-17 06:22:00,21.0,14.0,-100.00,North,-999,-999.0,-999.0,74,-99.99,,,-99.99,,2013-04-17 13:22:00,
2013-04-17 06:30:00,21.0,14.0,-100.00,North,-999,-999.0,-999.0,75,-99.99,,,-99.99,,2013-04-17 13:30:00,
2013-04-17 06:32:00,21.0,14.0,-100.00,North,-999,-999.0,-999.0,74,-99.99,,,-99.99,,2013-04-17 13:32:00,
2013-04-17 06:42:00,21.0,14.0,-100.00,North,-999,-999.0,-999.0,74,-99.99,,,-99.99,,2013-04-17 13:42:00,
2013-04-17 07:02:00,21.0,14.0,-100.00,North,-999,-999.0,-999.0,75,-99.99,,,-99.99,,2013-04-17 14:02:00,
2013-04-17 07:12:00,21.0,14.0,-100.00,North,-999,-999.0,-999.0,75,-99.99,,,-99.99,,2013-04-17 14:12:00,
2013-04-17 07:22:00,21.0,14.0,-100.00,North,-999,-999.0,-999.0,75,-99.99,,,-99.99,,2013-04-17 14:22:00,
2013-04-17 07:43:00,21.0,-99.9,-100.00,North,-999,-999.0,-999.0,-999,-99.99,,,-99.99,,2013-04-17 14:43:00,
2013-04-17 07:52:00,22.0,22.0,-100.00,North,-999,-999.0,-999.0,623,-99.99,,,-99.99,,2013-04-17 14:52:00,
2013-04-17 08:02:00,22.0,22.0,-100.00,North,-999,-999.0,-999.0,623,-99.99,,,-99.99,,2013-04-17 15:02:00,
2013-04-17 08:12:00,24.0,14.0,-100.00,North,-999,-999.0,-999.0,66,-99.99,,,-99.99,,2013-04-17 15:12:00,
2013-04-17 08:22:00,24.0,-99.9,-100.00,North,-999,-999.0,-999.0,-999,-99.99,,,-99.99,,2013-04-17 15:22:00,
2013-04-17 08:33:00,-999.0,-99.9,-100.00,NNE,30,0.0,-999.0,-999,-99.99,,,-99.99,,2013-04-17 15:33:00,
2013-04-17 08:43:00,24.0,-99.9,-100.00,North,-999,-999.0,-999.0,-999,-99.99,,,-99.99,,2013-04-17 15:43:00,
2013-04-17 08:53:00,24.0,-99.9,-100.00,North,-999,-999.0,-999.0,-999,-99.99,,,-99.99,,2013-04-17 15:53:00,
2013-04-17 09:03:00,24.0,-99.9,-100.00,North,-999,-999.0,-999.0,-999,-99.99,,,-99.99,,2013-04-17 16:03:00,
2013-04-17 09:12:00,25.0,16.0,-100.00,North,-999,-999.0,-999.0,68,-99.99,,,-99.99,,2013-04-17 16:12:00,
2013-04-17 09:22:00,26.0,16.0,-100.00,North,-999,-999.0,-999.0,66,-99.99,,,-99.99,,2013-04-17 16:22:00,
2013-04-17 09:32:00,26.0,16.0,-100.00,North,-999,-999.0,-999.0,66,-99.99,,,-99.99,,2013-04-17 16:32:00,
2013-04-17 09:42:00,27.0,17.0,-100.00,SSE,160,1.0,-999.0,65,-99.99,,,-99.99,,2013-04-17 16:42:00,
2013-04-17 09:52:00,28.0,18.0,-100.00,North,-999,-999.0,-999.0,64,-99.99,,,-99.99,,2013-04-17 16:52:00,
2013-04-17 10:02:00,28.0,18.0,-100.00,North,-999,-999.0,-999.0,64,-99.99,,,-99.99,,2013-04-17 17:02:00,
2013-04-17 10:12:00,29.0,19.0,-100.00,WSW,250,1.0,-999.0,66,-99.99,,,-99.99,,2013-04-17 17:12:00,
2013-04-17 10:22:00,30.0,18.0,-100.00,North,-999,-999.0,-999.0,59,-99.99,,,-99.99,,2013-04-17 17:22:00,
2013-04-17 10:33:00,-999.0,-99.9,-100.00,ENE,60,2.0,-999.0,-999,-99.99,,,-99.99,,2013-04-17 17:33:00,
2013-04-17 10:42:00,-999.0,-99.9,-100.00,ENE,60,2.0,-999.0,-999,-99.99,,,-99.99,,2013-04-17 17:42:00,
2013-04-17 10:52:00,-999.0,-99.9,-100.00,ENE,60,2.0,-999.0,-999,-99.99,,,-99.99,,2013-04-17 17:52:00,
2013-04-17 11:02:00,32.0,20.0,-100.00,North,-999,-999.0,-999.0,59,-99.99,,,-99.99,,2013-04-17 18:02:00,
2013-04-17 11:22:00,33.0,-99.9,-100.00,North,-999,-999.0,-999.0,-999,-99.99,,,-99.99,,2013-04-17 18:22:00,
2013-04-17 11:33:00,34.0,-99.9,-100.00,North,-999,-999.0,-999.0,-999,-99.99,,,-99.99,,2013-04-17 18:33:00,
2013-04-17 11:42:00,34.0,-99.9,-100.00,North,-999,-999.0,-999.0,-999,-99.99,,,-99.99,,2013-04-17 18:42:00,
2013-04-17 11:52:00,-999.0,-99.9,-100.00,NW,320,2.0,-999.0,-999,-99.99,,,-99.99,,2013-04-17 18:52:00,
2013-04-17 12:02:00,35.0,21.0,-100.00,North,-999,-999.0,-999.0,56,-99.99,,,-99.99,,2013-04-17 19:02:00,
2013-04-17 12:22:00,-999.0,-99.9,-100.00,North,350,2.0,-999.0,-999,-99.99,,,-99.99,,2013-04-17 19:22:00,
2013-04-17 12:32:00,36.0,20.0,-100.00,North,-999,-999.0,-999.0,50,-99.99,,,-99.99,,2013-04-17 19:32:00,
2013-04-17 12:42:00,-999.0,-99.9,-100.00,North,350,2.0,-999.0,-999,-99.99,,,-99.99,,2013-04-17 19:42:00,
2013-04-17 12:52:00,-999.0,-99.9,-100.00,North,350,2.0,-999.0,-999,-99.99,,,-99.99,,2013-04-17 19:52:00,
2013-04-17 13:33:00,-999.0,-99.9,-100.00,NW,310,2.0,-999.0,-999,-99.99,,,-99.99,,2013-04-17 20:33:00,
2013-04-17 13:42:00,38.0,15.0,-100.00,NNW,340,3.0,-999.0,38,-99.99,,,-99.99,,2013-04-17 20:42:00,
2013-04-17 13:52:00,38.0,15.0,-100.00,NNW,340,3.0,-999.0,38,-99.99,,,-99.99,,2013-04-17 20:52:00,
2013-04-17 14:03:00,-999.0,-99.9,-100.00,West,270,2.0,-999.0,-999,-99.99,,,-99.99,,2013-04-17 21:03:00,
2013-04-17 14:12:00,41.0,21.0,-100.00,North,-999,-999.0,-999.0,44,-99.99,,,-99.99,,2013-04-17 21:12:00,
2013-04-17 14:22:00,-999.0,-99.9,-100.00,NE,40,2.0,-999.0,-999,-99.99,,,-99.99,,2013-04-17 21:22:00,
2013-04-17 14:33:00,-999.0,-99.9,-100.00,NE,40,2.0,-999.0,-999,-99.99,,,-99.99,,2013-04-17 21:33:00,
2013-04-17 14:42:00,41.0,16.0,-100.00,North,-999,-999.0,-999.0,36,-99.99,,,-99.99,,2013-04-17 21:42:00,
2013-04-17 14:53:00,41.0,16.0,-100.00,North,-999,-999.0,-999.0,36,-99.99,,,-99.99,,2013-04-17 21:53:00,
2013-04-17 15:02:00,43.0,21.0,-100.00,North,-999,-999.0,-999.0,41,-99.99,,,-99.99,,2013-04-17 22:02:00,
2013-04-17 15:12:00,42.0,16.0,-100.00,North,-999,-999.0,-999.0,34,-99.99,,,-99.99,,2013-04-17 22:12:00,
2013-04-17 15:23:00,-999.0,-99.9,-100.00,WNW,300,3.0,-999.0,-999,-99.99,,,-99.99,,2013-04-17 22:23:00,
2013-04-17 15:33:00,43.0,16.0,-100.00,North,-999,-999.0,-999.0,32,-99.99,,,-99.99,,2013-04-17 22:33:00,
2013-04-17 15:42:00,43.0,14.0,-100.00,North,-999,-999.0,-999.0,30,-99.99,,,-99.99,,2013-04-17 22:42:00,
2013-04-17 15:53:00,-999.0,-99.9,-100.00,North,360,2.0,-999.0,-999,-99.99,,,-99.99,,2013-04-17 22:53:00,
2013-04-17 16:02:00,44.0,16.0,-100.00,North,-999,-999.0,-999.0,32,-99.99,,,-99.99,,2013-04-17 23:02:00,
2013-04-17 16:12:00,44.0,15.0,-100.00,North,-999,-999.0,-999.0,30,-99.99,,,-99.99,,2013-04-17 23:12:00,
2013-04-17 16:22:00,46.0,17.0,-100.00,North,-999,-999.0,-999.0,31,-99.99,,,-99.99,,2013-04-17 23:22:00,
2013-04-17 16:32:00,-999.0,-99.9,-100.00,West,280,2.0,-999.0,-999,-99.99,,,-99.99,,2013-04-17 23:32:00,
2013-04-17 16:42:00,48.0,19.0,-100.00,North,-999,-999.0,-999.0,31,-99.99,,,-99.99,,2013-04-17 23:42:00,
2013-04-17 16:52:00,46.0,-99.9,-100.00,NNE,20,2.0,-999.0,-999,-99.99,,,-99.99,,2013-04-17 23:52:00,
2013-04-17 17:02:00,46.0,-99.9,-100.00,NNE,20,2.0,-999.0,-999,-99.99,,,-99.99,,2013-04-18 00:02:00,
2013-04-17 17:12:00,46.0,20.0,-100.00,SW,230,2.0,-999.0,35,-99.99,,,-99.99,,2013-04-18 00:12:00,
2013-04-17 17:22:00,48.0,-99.9,-100.00,North,-999,-999.0,-999.0,-999,-99.99,,,-99.99,,2013-04-18 00:22:00,
2013-04-17 17:32:00,48.0,-99.9,-100.00,North,-999,-999.0,-999.0,-999,-99.99,,,-99.99,,2013-04-18 00:32:00,
2013-04-17 17:43:00,48.0,-99.9,-100.00,North,-999,-999.0,-999.0,-999,-99.99,,,-99.99,,2013-04-18 00:43:00,
2013-04-17 17:52:00,45.0,16.0,-100.00,NNW,330,1.0,-999.0,30,-99.99,,,-99.99,,2013-04-18 00:52:00,
2013-04-17 18:02:00,45.0,16.0,-100.00,NNW,330,1.0,-999.0,30,-99.99,,,-99.99,,2013-04-18 01:02:00,
2013-04-17 18:12:00,44.0,18.0,-100.00,North,-999,-999.0,-999.0,34,-99.99,,,-99.99,,2013-04-18 01:12:00,
2013-04-17 18:22:00,43.0,15.0,-100.00,North,-999,-999.0,-999.0,32,-99.99,,,-99.99,,2013-04-18 01:22:00,
2013-04-17 18:32:00,43.0,15.0,-100.00,North,-999,-999.0,-999.0,32,-99.99,,,-99.99,,2013-04-18 01:32:00,
2013-04-17 18:42:00,43.0,15.0,-100.00,North,-999,-999.0,-999.0,32,-99.99,,,-99.99,,2013-04-18 01:42:00,
2013-04-17 18:52:00,36.0,-99.9,-100.00,North,-999,-999.0,-999.0,-999,-99.99,,,-99.99,,2013-04-18 01:52:00,
2013-04-17 20:02:00,36.0,14.0,-100.00,North,-999,-999.0,-999.0,39,-99.99,,,-99.99,,2013-04-18 03:02:00,
2013-04-17 20:12:00,36.0,14.0,-100.00,North,-999,-999.0,-999.0,39,-99.99,,,-99.99,,2013-04-18 03:12:00,
2013-04-17 20:20:00,31.0,13.0,-100.00,North,-999,-999.0,-999.0,46,-99.99,,,-99.99,,2013-04-18 03:20:00,
2013-04-17 20:34:00,33.0,-99.9,-100.00,North,-999,-999.0,-999.0,-999,-99.99,,,-99.99,,2013-04-18 03:34:00,
2013-04-17 20:43:00,33.0,-99.9,-100.00,North,-999,-999.0,-999.0,-999,-99.99,,,-99.99,,2013-04-18 03:43:00,
2013-04-17 20:53:00,31.0,13.0,-100.00,North,-999,-999.0,-999.0,46,-99.99,,,-99.99,,2013-04-18 03:53:00,
2013-04-17 21:03:00,31.0,13.0,-100.00,North,-999,-999.0,-999.0,46,-99.99,,,-99.99,,2013-04-18 04:03:00,
2013-04-17 21:13:00,31.0,13.0,-100.00,North,-999,-999.0,-999.0,46,-99.99,,,-99.99,,2013-04-18 04:13:00,
2013-04-17 21:33:00,31.0,-99.9,-100.00,North,-999,-999.0,-999.0,-999,-99.99,,,-99.99,,2013-04-18 04:33:00,
2013-04-17 21:43:00,31.0,-99.9,-100.00,North,-999,-999.0,-999.0,-999,-99.99,,,-99.99,,2013-04-18 04:43:00,
2013-04-17 21:53:00,31.0,15.0,-100.00,North,-999,-999.0,-999.0,50,-99.99,,,-99.99,,2013-04-18 04:53:00,
2013-04-17 22:02:00,32.0,16.0,-100.00,North,-999,-999.0,-999.0,51,-99.99,,,-99.99,,2013-04-18 05:02:00,
2013-04-17 22:12:00,32.0,14.0,-100.00,North,-999,-999.0,-999.0,47,-99.99,,,-99.99,,2013-04-18 05:12:00,
2013-04-17 22:22:00,32.0,14.0,-100.00,North,-999,-999.0,-999.0,47,-99.99,,,-99.99,,2013-04-18 05:22:00,
2013-04-17 22:32:00,30.0,15.0,-100.00,North,-999,-999.0,-999.0,51,-99.99,,,-99.99,,2013-04-18 05:32:00,
2013-04-17 23:02:00,29.0,14.0,-100.00,North,-999,-999.0,-999.0,53,-99.99,,,-99.99,,2013-04-18 06:02:00,
2013-04-17 23:12:00,29.0,13.0,-100.00,North,-999,-999.0,-999.0,50,-99.99,,,-99.99,,2013-04-18 06:12:00,
2013-04-17 23:22:00,29.0,13.0,-100.00,North,-999,-999.0,-999.0,50,-99.99,,,-99.99,,2013-04-18 06:22:00,
2013-04-17 23:32:00,29.0,13.0,-100.00,North,-999,-999.0,-999.0,50,-99.99,,,-99.99,,2013-04-18 06:32:00,
2013-04-17 23:42:00,31.0,16.0,-100.00,North,-999,-999.0,-999.0,53,-99.99,,,-99.99,,2013-04-18 06:42:00,
2013-04-17 23:52:00,31.0,16.0,-100.00,North,-999,-999.0,-999.0,53,-99.99,,,-99.99,,2013-04-18 06:52:00,